Terminal Aerodrome Forecast
Issued by NWS

Home | Current Version | Previous Version | Text Only | Print | Product List | Glossary On
Versions: 1 2 3 4 5 6 7 8 9 10 11 12 13 14 15 16 17 18 19 20 21 22 23 24 25 26 27 28 29 30 31 32
000
FTUS43 KDLH 181900 AAA
TAFHYR
TAF AMD
KHYR 181915Z 1819/1918 13010G17KT P6SM SCT200
     FM190400 13008KT P6SM BKN150
     FM190900 09007KT P6SM -RA SCT015 OVC040
     FM191200 16008KT 5SM -RA BR OVC025
     FM191600 17008KT 5SM -RA BR OVC015=

USA.gov is the U.S. government's official web portal to all federal, state and local government web resources and services.